Time;durP1;ratioP1;P1;durP2;ratioP2;P2;SDS_P1;SDS_P2;PMS_P1;PMS_P2;Temp;Humidity;BMP_temperature;BMP_pressure;BME280_temperature;BME280_humidity;BME280_pressure;Samples;Min_cycle;Max_cycle;Signal;HPM_P1;HPM_P2
2021/09/29 00:01:04;;;;;;;23.35;20.98;;;;;;;;;;6276033;22;20007;-78
2021/09/29 00:03:30;;;;;;;21.77;19.58;;;;;;;;;;6276150;22;20008;-77
2021/09/29 00:05:56;;;;;;;23.80;21.38;;;;;;;;;;6275914;22;20010;-76
2021/09/29 00:08:22;;;;;;;24.52;22.13;;;;;;;;;;6276138;22;20100;-77
2021/09/29 00:10:48;;;;;;;20.95;18.83;;;;;;;;;;6275802;22;20010;-78
2021/09/29 00:13:14;;;;;;;24.23;21.73;;;;;;;;;;6276532;22;20007;-77
2021/09/29 00:15:41;;;;;;;23.15;20.63;;;;;;;;;;6275992;22;20015;-79
2021/09/29 00:18:07;;;;;;;21.25;19.05;;;;;;;;;;6275982;22;20079;-76
2021/09/29 00:20:33;;;;;;;21.85;19.55;;;;;;;;;;6275968;22;20095;-77
2021/09/29 00:22:59;;;;;;;21.65;19.40;;;;;;;;;;6275669;22;20034;-77
2021/09/29 00:25:25;;;;;;;22.38;20.08;;;;;;;;;;6276000;22;20004;-79
2021/09/29 00:27:51;;;;;;;21.80;19.58;;;;;;;;;;6275575;22;20089;-76
2021/09/29 00:30:19;;;;;;;21.65;19.52;;;;;;;;;;6275899;22;20057;-76
2021/09/29 00:32:45;;;;;;;21.88;19.73;;;;;;;;;;6275886;22;20027;-77
2021/09/29 00:35:13;;;;;;;22.27;19.67;;;;;;;;;;6275669;22;20003;-78
2021/09/29 00:37:39;;;;;;;25.70;23.02;;;;;;;;;;6275867;22;20439;-78
2021/09/29 00:40:06;;;;;;;25.25;22.63;;;;;;;;;;6275551;22;20004;-77
2021/09/29 00:42:33;;;;;;;24.75;22.25;;;;;;;;;;6275836;22;20023;-76
2021/09/29 00:44:59;;;;;;;23.90;21.30;;;;;;;;;;6275495;22;20069;-78
2021/09/29 00:47:27;;;;;;;22.42;20.17;;;;;;;;;;6275804;22;20066;-78
2021/09/29 00:49:54;;;;;;;23.38;20.98;;;;;;;;;;6275343;22;20068;-78
2021/09/29 00:52:20;;;;;;;22.13;19.83;;;;;;;;;;6275448;22;20013;-77
2021/09/29 00:54:46;;;;;;;23.55;21.20;;;;;;;;;;6275690;22;20158;-79
2021/09/29 00:57:12;;;;;;;27.52;22.45;;;;;;;;;;6275251;22;20335;-78
2021/09/29 00:59:38;;;;;;;25.20;21.75;;;;;;;;;;6275718;22;20050;-76
2021/09/29 01:02:04;;;;;;;23.63;21.13;;;;;;;;;;6275490;22;20004;-76
2021/09/29 01:04:31;;;;;;;24.83;22.27;;;;;;;;;;6275783;22;20003;-78
2021/09/29 01:07:11;;;;;;;22.88;20.35;;;;;;;;;;6275355;22;20045;-78
2021/09/29 01:09:55;;;;;;;24.13;21.58;;;;;;;;;;6275618;22;20004;-78
2021/09/29 01:12:40;;;;;;;22.85;20.50;;;;;;;;;;6275931;22;20053;-77
2021/09/29 01:15:07;;;;;;;22.70;19.95;;;;;;;;;;6275787;22;20066;-78
2021/09/29 01:17:35;;;;;;;23.75;21.30;;;;;;;;;;6275164;22;20012;-78
2021/09/29 01:20:06;;;;;;;24.08;21.58;;;;;;;;;;6275654;22;20010;-77
2021/09/29 01:22:44;;;;;;;24.00;20.40;;;;;;;;;;6275275;22;20004;-76
2021/09/29 01:25:17;;;;;;;25.42;22.83;;;;;;;;;;6248140;22;20388;-78
2021/09/29 01:27:45;;;;;;;23.10;20.42;;;;;;;;;;6275439;22;19999;-76
2021/09/29 01:30:11;;;;;;;22.48;20.08;;;;;;;;;;6275670;22;20034;-78
2021/09/29 01:32:38;;;;;;;22.63;20.40;;;;;;;;;;6275562;22;20002;-79
2021/09/29 01:35:04;;;;;;;22.98;20.58;;;;;;;;;;6275392;22;20083;-78
2021/09/29 01:37:30;;;;;;;23.30;20.83;;;;;;;;;;6275535;22;20007;-78
2021/09/29 01:39:57;;;;;;;22.10;19.90;;;;;;;;;;6275370;22;20003;-79
2021/09/29 01:42:24;;;;;;;23.58;20.67;;;;;;;;;;6275101;22;20004;-77
2021/09/29 01:44:50;;;;;;;23.00;20.70;;;;;;;;;;6275492;22;20082;-78
2021/09/29 01:47:16;;;;;;;23.70;20.40;;;;;;;;;;6275203;22;20050;-76
2021/09/29 01:49:45;;;;;;;24.45;21.05;;;;;;;;;;6275497;22;20008;-79
2021/09/29 01:52:12;;;;;;;23.38;20.98;;;;;;;;;;6274884;22;20012;-77
2021/09/29 01:54:42;;;;;;;22.27;19.98;;;;;;;;;;6275459;22;20007;-76
2021/09/29 01:57:10;;;;;;;21.58;19.38;;;;;;;;;;6274960;22;20119;-78
2021/09/29 01:59:36;;;;;;;23.25;20.95;;;;;;;;;;6275341;22;20006;-77
2021/09/29 02:02:03;;;;;;;23.08;20.75;;;;;;;;;;6275203;22;20003;-77
2021/09/29 02:04:30;;;;;;;24.60;22.20;;;;;;;;;;6275347;22;20003;-79
2021/09/29 02:06:57;;;;;;;23.23;20.65;;;;;;;;;;6275145;22;19999;-77
2021/09/29 02:09:25;;;;;;;24.17;21.25;;;;;;;;;;6275996;22;20011;-76
2021/09/29 02:11:53;;;;;;;23.05;20.65;;;;;;;;;;6250077;22;20430;-78
2021/09/29 02:14:19;;;;;;;23.58;21.25;;;;;;;;;;6277019;22;20004;-79
2021/09/29 02:16:46;;;;;;;22.48;20.08;;;;;;;;;;6277193;22;20393;-79
2021/09/29 02:19:12;;;;;;;22.70;20.30;;;;;;;;;;6277017;22;19996;-78
2021/09/29 02:21:39;;;;;;;23.58;21.08;;;;;;;;;;6277307;22;20003;-79
2021/09/29 02:24:06;;;;;;;24.98;22.50;;;;;;;;;;6276924;22;20027;-77
2021/09/29 02:26:32;;;;;;;27.33;24.52;;;;;;;;;;6277385;22;20000;-79
2021/09/29 02:28:58;;;;;;;25.02;22.60;;;;;;;;;;6277064;22;20022;-79
2021/09/29 02:31:24;;;;;;;30.92;23.92;;;;;;;;;;6276911;22;20007;-79
2021/09/29 02:33:50;;;;;;;26.70;22.13;;;;;;;;;;6277145;22;20003;-78
2021/09/29 02:36:16;;;;;;;24.70;22.15;;;;;;;;;;6276712;22;20481;-79
2021/09/29 02:38:43;;;;;;;22.70;20.30;;;;;;;;;;6277144;22;20003;-77
2021/09/29 02:41:10;;;;;;;22.70;20.25;;;;;;;;;;6276812;22;20003;-76
2021/09/29 02:43:36;;;;;;;22.40;19.52;;;;;;;;;;6277101;22;20008;-79
2021/09/29 02:46:03;;;;;;;22.60;20.25;;;;;;;;;;6276950;22;20011;-79
2021/09/29 02:48:29;;;;;;;21.65;19.35;;;;;;;;;;6276908;22;20003;-78
2021/09/29 02:50:56;;;;;;;19.08;17.08;;;;;;;;;;6276944;22;20057;-78
2021/09/29 02:53:22;;;;;;;21.17;18.73;;;;;;;;;;6276467;22;20016;-76
2021/09/29 02:55:48;;;;;;;22.10;18.08;;;;;;;;;;6276857;22;20042;-76
2021/09/29 02:58:14;;;;;;;20.10;18.00;;;;;;;;;;6276671;22;20383;-76
2021/09/29 03:00:40;;;;;;;19.17;15.85;;;;;;;;;;6276896;22;20023;-77
2021/09/29 03:03:09;;;;;;;21.15;18.63;;;;;;;;;;6249652;22;20011;-78
2021/09/29 03:05:36;;;;;;;22.05;18.48;;;;;;;;;;6276686;22;20462;-79
2021/09/29 03:08:02;;;;;;;20.40;17.20;;;;;;;;;;6249675;22;20095;-77
2021/09/29 03:10:28;;;;;;;19.00;16.23;;;;;;;;;;6276591;22;20000;-79
2021/09/29 03:12:54;;;;;;;19.50;16.35;;;;;;;;;;6277086;22;20003;-78
2021/09/29 03:15:20;;;;;;;20.88;16.42;;;;;;;;;;6276427;22;20008;-77
2021/09/29 03:17:46;;;;;;;20.58;18.13;;;;;;;;;;6276649;22;20019;-78
2021/09/29 03:20:12;;;;;;;18.70;16.73;;;;;;;;;;6276594;22;20004;-79
2021/09/29 03:22:39;;;;;;;21.08;16.60;;;;;;;;;;6276666;22;19999;-76
2021/09/29 03:25:07;;;;;;;21.23;16.00;;;;;;;;;;6276608;22;19999;-77
2021/09/29 03:27:33;;;;;;;20.25;18.05;;;;;;;;;;6276641;22;20003;-76
2021/09/29 03:29:59;;;;;;;18.70;16.63;;;;;;;;;;6276635;22;20074;-78
2021/09/29 03:32:25;;;;;;;16.92;15.10;;;;;;;;;;6276263;22;19999;-78
2021/09/29 03:34:52;;;;;;;18.48;16.50;;;;;;;;;;6276444;22;20000;-77
2021/09/29 03:37:18;;;;;;;18.73;15.02;;;;;;;;;;6276172;22;20316;-78
2021/09/29 03:39:44;;;;;;;17.40;15.63;;;;;;;;;;6276275;22;20003;-77
2021/09/29 03:42:10;;;;;;;16.45;14.80;;;;;;;;;;6276421;22;20003;-77
2021/09/29 03:44:36;;;;;;;28.85;25.75;;;;;;;;;;6276003;22;20003;-76
2021/09/29 03:47:02;;;;;;;18.33;16.42;;;;;;;;;;6276247;22;20026;-77
2021/09/29 03:49:28;;;;;;;18.25;15.05;;;;;;;;;;6275972;22;20081;-79
2021/09/29 03:51:55;;;;;;;17.10;14.82;;;;;;;;;;6276067;22;20024;-78
2021/09/29 03:54:21;;;;;;;18.48;16.00;;;;;;;;;;6249171;22;20034;-78
2021/09/29 03:56:47;;;;;;;20.63;16.30;;;;;;;;;;6276116;22;20007;-77
2021/09/29 03:59:13;;;;;;;19.17;16.83;;;;;;;;;;6276323;22;20007;-77
2021/09/29 04:01:39;;;;;;;16.08;14.35;;;;;;;;;;6276007;22;20069;-76
2021/09/29 04:04:05;;;;;;;18.58;15.15;;;;;;;;;;6275924;22;20000;-76
2021/09/29 04:06:31;;;;;;;17.73;15.52;;;;;;;;;;6276113;22;20031;-77
2021/09/29 04:08:58;;;;;;;16.38;14.77;;;;;;;;;;6276161;22;20322;-78
2021/09/29 04:11:24;;;;;;;17.95;14.75;;;;;;;;;;6276213;22;20003;-78
2021/09/29 04:13:50;;;;;;;16.90;15.10;;;;;;;;;;6275821;22;20008;-79
2021/09/29 04:16:16;;;;;;;18.20;14.30;;;;;;;;;;6276002;22;20007;-79
2021/09/29 04:18:42;;;;;;;21.00;17.92;;;;;;;;;;6275783;22;20747;-78
2021/09/29 04:21:08;;;;;;;17.55;15.60;;;;;;;;;;6276168;22;20014;-77
2021/09/29 04:23:35;;;;;;;17.23;15.02;;;;;;;;;;6275954;22;20010;-77
2021/09/29 04:26:02;;;;;;;20.38;16.00;;;;;;;;;;6275895;22;20331;-77
2021/09/29 04:28:29;;;;;;;18.67;16.35;;;;;;;;;;6276045;22;20000;-77
2021/09/29 04:30:55;;;;;;;19.75;17.00;;;;;;;;;;6275889;22;20003;-77
2021/09/29 04:33:21;;;;;;;20.67;16.25;;;;;;;;;;6275742;22;20019;-78
2021/09/29 04:35:47;;;;;;;20.70;15.10;;;;;;;;;;6248356;22;20008;-75
2021/09/29 04:38:13;;;;;;;19.10;16.65;;;;;;;;;;6275996;22;20011;-75
2021/09/29 04:40:40;;;;;;;20.98;16.95;;;;;;;;;;6275668;22;20012;-76
2021/09/29 04:43:06;;;;;;;24.05;18.63;;;;;;;;;;6275746;22;20006;-79
2021/09/29 04:45:32;;;;;;;31.02;19.15;;;;;;;;;;6275920;22;20447;-76
2021/09/29 04:48:00;;;;;;;27.30;18.05;;;;;;;;;;6275505;22;19999;-76
2021/09/29 04:50:27;;;;;;;18.67;16.27;;;;;;;;;;6275874;22;20007;-77
2021/09/29 04:52:53;;;;;;;21.55;16.85;;;;;;;;;;6274887;22;20020;-74
2021/09/29 04:55:19;;;;;;;25.38;21.05;;;;;;;;;;6275214;22;20008;-75
2021/09/29 04:57:45;;;;;;;23.83;19.67;;;;;;;;;;6275395;22;20007;-77
2021/09/29 05:00:12;;;;;;;19.95;17.08;;;;;;;;;;6275432;22;19999;-73
2021/09/29 05:02:38;;;;;;;30.30;27.05;;;;;;;;;;6275540;22;19999;-77
2021/09/29 05:05:05;;;;;;;19.13;16.77;;;;;;;;;;6275023;22;20334;-83
2021/09/29 05:07:31;;;;;;;25.60;17.15;;;;;;;;;;6275815;22;20004;-77
2021/09/29 05:09:57;;;;;;;19.10;16.40;;;;;;;;;;6275477;22;20015;-78
2021/09/29 05:12:42;;;;;;;17.05;14.48;;;;;;;;;;6275260;22;20074;-77
2021/09/29 05:15:09;;;;;;;19.98;17.88;;;;;;;;;;6275538;22;20018;-78
2021/09/29 05:17:35;;;;;;;23.13;17.30;;;;;;;;;;6275287;22;20082;-74
2021/09/29 05:20:14;;;;;;;17.90;16.10;;;;;;;;;;6275473;22;20003;-78
2021/09/29 05:22:41;;;;;;;18.65;16.65;;;;;;;;;;6275211;22;20003;-77
2021/09/29 05:25:07;;;;;;;19.42;16.75;;;;;;;;;;6274904;22;20400;-78
2021/09/29 05:27:33;;;;;;;22.55;17.25;;;;;;;;;;6269274;22;20066;-78
2021/09/29 05:29:59;;;;;;;21.00;14.98;;;;;;;;;;6274144;22;20004;-76
2021/09/29 05:32:25;;;;;;;20.98;15.73;;;;;;;;;;6275193;22;20003;-75
2021/09/29 05:34:51;;;;;;;25.42;22.58;;;;;;;;;;6273657;22;20423;-77
2021/09/29 05:37:18;;;;;;;24.35;21.48;;;;;;;;;;6274925;22;20431;-75
2021/09/29 05:39:44;;;;;;;21.10;19.00;;;;;;;;;;6273257;22;20004;-76
2021/09/29 05:42:10;;;;;;;19.10;17.15;;;;;;;;;;6272909;22;20891;-79
2021/09/29 05:44:37;;;;;;;19.33;17.05;;;;;;;;;;6275453;22;20034;-79
2021/09/29 05:47:04;;;;;;;20.50;17.95;;;;;;;;;;6275804;22;20012;-77
2021/09/29 05:49:30;;;;;;;18.70;16.80;;;;;;;;;;6276392;22;20098;-78
2021/09/29 05:51:56;;;;;;;24.08;21.38;;;;;;;;;;6275527;22;20023;-75
2021/09/29 05:54:23;;;;;;;29.70;26.80;;;;;;;;;;6276612;22;20000;-75
2021/09/29 05:56:49;;;;;;;20.77;18.65;;;;;;;;;;6275897;22;20022;-78
2021/09/29 05:59:15;;;;;;;19.70;17.38;;;;;;;;;;6275420;22;20034;-78
2021/09/29 06:01:41;;;;;;;18.05;16.30;;;;;;;;;;6276048;22;19999;-78
2021/09/29 06:04:09;;;;;;;20.05;17.98;;;;;;;;;;6276515;22;20024;-76
2021/09/29 06:06:35;;;;;;;24.38;21.83;;;;;;;;;;6276781;22;20003;-76
2021/09/29 06:09:02;;;;;;;23.27;20.70;;;;;;;;;;6276032;22;20430;-77
2021/09/29 06:11:28;;;;;;;19.58;17.55;;;;;;;;;;6276228;22;20006;-84
2021/09/29 06:13:54;;;;;;;19.67;17.58;;;;;;;;;;6249025;22;20016;-78
2021/09/29 06:16:20;;;;;;;21.98;19.33;;;;;;;;;;6276191;22;20073;-75
2021/09/29 06:18:48;;;;;;;22.15;19.85;;;;;;;;;;6275744;22;20094;-76
2021/09/29 06:21:16;;;;;;;20.15;18.00;;;;;;;;;;6275580;22;20026;-80
2021/09/29 06:23:43;;;;;;;20.00;17.95;;;;;;;;;;6275645;22;20004;-78
2021/09/29 06:26:09;;;;;;;17.77;15.98;;;;;;;;;;6275775;22;20000;-78
2021/09/29 06:28:37;;;;;;;22.38;19.33;;;;;;;;;;6248100;22;20312;-75
2021/09/29 06:31:04;;;;;;;26.58;19.17;;;;;;;;;;6276082;22;20014;-76
2021/09/29 06:33:30;;;;;;;20.45;17.65;;;;;;;;;;6249065;22;20014;-78
2021/09/29 06:35:57;;;;;;;20.23;18.15;;;;;;;;;;6275610;22;20034;-78
2021/09/29 06:38:23;;;;;;;20.27;18.25;;;;;;;;;;6276022;22;20004;-76
2021/09/29 06:40:50;;;;;;;19.95;16.27;;;;;;;;;;6248354;22;20014;-80
2021/09/29 06:43:17;;;;;;;19.20;16.50;;;;;;;;;;6275906;22;20026;-79
2021/09/29 06:45:43;;;;;;;20.05;17.25;;;;;;;;;;6249366;22;19996;-77
2021/09/29 06:48:12;;;;;;;27.70;24.55;;;;;;;;;;6275541;22;20008;-78
2021/09/29 06:50:38;;;;;;;20.85;17.85;;;;;;;;;;6275906;22;20533;-79
2021/09/29 06:53:05;;;;;;;17.35;15.57;;;;;;;;;;6275556;22;20335;-77
2021/09/29 06:55:31;;;;;;;20.02;18.00;;;;;;;;;;6275483;22;20027;-77
2021/09/29 06:57:57;;;;;;;19.20;17.23;;;;;;;;;;6275742;22;20083;-76
2021/09/29 07:00:25;;;;;;;16.98;15.27;;;;;;;;;;6275841;22;20026;-80
2021/09/29 07:02:52;;;;;;;17.50;15.70;;;;;;;;;;6275974;22;20055;-76
2021/09/29 07:05:18;;;;;;;21.67;19.50;;;;;;;;;;6275008;22;20396;-83
2021/09/29 07:07:44;;;;;;;19.40;17.42;;;;;;;;;;6276168;22;20000;-77
2021/09/29 07:10:13;;;;;;;49.15;44.20;;;;;;;;;;6275637;22;20009;-78
2021/09/29 07:12:39;;;;;;;21.95;19.42;;;;;;;;;;6276073;22;19999;-76
2021/09/29 07:15:07;;;;;;;24.58;21.85;;;;;;;;;;6276229;22;20007;-76
2021/09/29 07:17:33;;;;;;;21.63;18.85;;;;;;;;;;6275703;22;20015;-77
2021/09/29 07:20:02;;;;;;;16.48;14.75;;;;;;;;;;6275615;22;20054;-80
2021/09/29 07:22:28;;;;;;;17.25;15.55;;;;;;;;;;6276116;22;20011;-76
2021/09/29 07:24:55;;;;;;;18.38;15.68;;;;;;;;;;6275962;22;20000;-77
2021/09/29 07:27:22;;;;;;;17.15;15.45;;;;;;;;;;6275041;22;20014;-76
2021/09/29 07:29:48;;;;;;;15.98;13.90;;;;;;;;;;6276308;22;20083;-79
2021/09/29 07:32:14;;;;;;;16.58;15.05;;;;;;;;;;6275609;22;20082;-77
2021/09/29 07:34:40;;;;;;;17.88;15.57;;;;;;;;;;6275395;22;20004;-74
2021/09/29 07:37:06;;;;;;;17.77;15.98;;;;;;;;;;6275442;22;20066;-78
2021/09/29 07:39:32;;;;;;;15.40;13.77;;;;;;;;;;6275928;22;20030;-76
2021/09/29 07:41:59;;;;;;;16.40;14.82;;;;;;;;;;6275666;22;20007;-77
2021/09/29 07:44:25;;;;;;;16.67;14.88;;;;;;;;;;6274847;22;19999;-77
2021/09/29 07:46:51;;;;;;;13.43;12.13;;;;;;;;;;6275479;22;20023;-76
2021/09/29 07:49:21;;;;;;;14.40;12.68;;;;;;;;;;6275202;22;20000;-76
2021/09/29 07:51:47;;;;;;;13.35;12.07;;;;;;;;;;6275601;22;20030;-77
2021/09/29 07:54:14;;;;;;;11.57;10.27;;;;;;;;;;6275601;22;20067;-77
2021/09/29 07:56:40;;;;;;;14.65;11.52;;;;;;;;;;6275292;22;20365;-75
2021/09/29 07:59:06;;;;;;;11.13;9.73;;;;;;;;;;6275086;22;20045;-78
2021/09/29 08:01:32;;;;;;;10.70;8.65;;;;;;;;;;6275234;22;20007;-79
2021/09/29 08:03:58;;;;;;;9.52;8.60;;;;;;;;;;6274357;22;20003;-76
2021/09/29 08:06:24;;;;;;;13.98;8.30;;;;;;;;;;6274895;22;19999;-77
2021/09/29 08:08:52;;;;;;;11.05;9.52;;;;;;;;;;6275443;22;20030;-79
2021/09/29 08:11:18;;;;;;;11.95;8.13;;;;;;;;;;6274851;22;20004;-74
2021/09/29 08:13:44;;;;;;;12.93;10.30;;;;;;;;;;6275348;22;20141;-76
2021/09/29 08:16:10;;;;;;;8.65;7.85;;;;;;;;;;6275081;22;20149;-75
2021/09/29 08:18:37;;;;;;;7.72;6.95;;;;;;;;;;6246839;22;20018;-78
2021/09/29 08:21:08;;;;;;;9.82;8.82;;;;;;;;;;6274358;22;20321;-77
2021/09/29 08:23:36;;;;;;;10.00;7.75;;;;;;;;;;6273169;22;20035;-78
2021/09/29 08:31:31;;;;;;;7.55;6.85;;;;;;;;;;6274791;22;20458;-77
2021/09/29 08:36:53;;;;;;;8.38;7.55;;;;;;;;;;6284909;22;19906;-77
2021/09/29 08:39:27;;;;;;;7.82;6.75;;;;;;;;;;6272545;22;20060;-76
2021/09/29 08:47:14;;;;;;;7.38;6.25;;;;;;;;;;6285177;22;20095;-79
2021/09/29 08:52:21;;;;;;;8.23;6.72;;;;;;;;;;6280679;22;20027;-76
2021/09/29 08:55:08;;;;;;;5.90;5.30;;;;;;;;;;6274851;22;20019;-77
2021/09/29 09:17:41;;;;;;;7.30;5.63;;;;;;;;;;6274571;22;20394;-77
2021/09/29 09:20:19;;;;;;;5.32;4.30;;;;;;;;;;6247591;22;20012;-76
2021/09/29 09:22:51;;;;;;;5.07;4.15;;;;;;;;;;6274262;22;20012;-75
2021/09/29 09:25:18;;;;;;;4.68;4.03;;;;;;;;;;6275004;22;20004;-79
2021/09/29 09:27:45;;;;;;;5.95;4.28;;;;;;;;;;6246973;22;20011;-77
2021/09/29 09:30:12;;;;;;;5.50;4.63;;;;;;;;;;6274658;22;20027;-78
2021/09/29 09:32:44;;;;;;;11.52;4.50;;;;;;;;;;6274338;22;20035;-75
2021/09/29 09:35:11;;;;;;;5.75;4.07;;;;;;;;;;6273972;22;20004;-78
2021/09/29 09:38:05;;;;;;;4.63;4.15;;;;;;;;;;6246474;22;20343;-75
2021/09/29 09:40:37;;;;;;;4.27;3.60;;;;;;;;;;6274584;22;20004;-76
2021/09/29 09:43:04;;;;;;;5.00;4.10;;;;;;;;;;6274384;22;20236;-80
2021/09/29 09:45:34;;;;;;;5.07;4.30;;;;;;;;;;6274897;22;20030;-75
2021/09/29 09:48:01;;;;;;;6.55;4.07;;;;;;;;;;6273732;22;20007;-75
2021/09/29 09:50:28;;;;;;;4.22;3.55;;;;;;;;;;6274492;22;20015;-76
2021/09/29 09:52:55;;;;;;;4.38;3.80;;;;;;;;;;6246154;22;20081;-77
2021/09/29 09:55:23;;;;;;;5.35;3.95;;;;;;;;;;6274621;22;20010;-79
2021/09/29 09:58:08;;;;;;;4.20;3.80;;;;;;;;;;6247207;22;20016;-75
2021/09/29 10:00:36;;;;;;;9.93;8.88;;;;;;;;;;6274356;22;20366;-76
2021/09/29 10:03:03;;;;;;;5.55;4.68;;;;;;;;;;6273931;22;20319;-76
2021/09/29 10:05:30;;;;;;;15.00;13.52;;;;;;;;;;6273794;22;20000;-78
2021/09/29 10:07:57;;;;;;;29.27;26.23;;;;;;;;;;6273642;22;20392;-76
2021/09/29 10:13:18;;;;;;;11.50;10.15;;;;;;;;;;6278330;22;20323;-73
2021/09/29 10:27:16;;;;;;;6.35;5.30;;;;;;;;;;6284049;22;20050;-76
2021/09/29 10:29:49;;;;;;;6.60;5.57;;;;;;;;;;6246939;22;20004;-75
2021/09/29 10:32:31;;;;;;;6.68;5.93;;;;;;;;;;6275966;22;20003;-77
2021/09/29 10:35:05;;;;;;;6.25;5.38;;;;;;;;;;6275656;22;20052;-82
2021/09/29 10:43:30;;;;;;;6.40;5.72;;;;;;;;;;6275949;22;20073;-77
2021/09/29 10:46:16;;;;;;;6.40;5.83;;;;;;;;;;6275681;22;19995;-78
2021/09/29 10:49:04;;;;;;;9.10;8.20;;;;;;;;;;6276195;22;20255;-78
2021/09/29 11:29:48;;;;;;;5.10;4.60;;;;;;;;;;6275432;22;20408;-73
2021/09/29 11:32:27;;;;;;;6.15;5.43;;;;;;;;;;6274734;22;20026;-74
2021/09/29 11:34:56;;;;;;;6.43;5.55;;;;;;;;;;6275307;22;20039;-76
2021/09/29 11:49:21;;;;;;;6.43;5.82;;;;;;;;;;6275434;22;20102;-77
2021/09/29 12:11:06;;;;;;;7.63;6.03;;;;;;;;;;6274930;22;20068;-81
2021/09/29 12:13:41;;;;;;;6.18;5.57;;;;;;;;;;6275634;22;20404;-74
2021/09/29 12:16:07;;;;;;;6.80;5.18;;;;;;;;;;6248306;22;20034;-77
2021/09/29 12:18:34;;;;;;;5.20;4.68;;;;;;;;;;6274320;22;20055;-76
2021/09/29 12:21:01;;;;;;;5.15;4.65;;;;;;;;;;6273512;22;20031;-73
2021/09/29 12:23:27;;;;;;;6.93;6.22;;;;;;;;;;6274156;22;20321;-76
2021/09/29 12:26:15;;;;;;;6.28;5.35;;;;;;;;;;6275388;22;20083;-74
2021/09/29 12:28:57;;;;;;;5.97;5.10;;;;;;;;;;6275728;22;20007;-76
2021/09/29 12:34:30;;;;;;;6.93;5.07;;;;;;;;;;6181441;23;20449;-74
2021/09/29 12:37:09;;;;;;;8.02;5.38;;;;;;;;;;6257388;22;20007;-74
2021/09/29 12:39:37;;;;;;;6.22;5.53;;;;;;;;;;6275090;22;20004;-75
2021/09/29 12:42:04;;;;;;;11.15;10.10;;;;;;;;;;6274641;22;20085;-76
2021/09/29 12:44:30;;;;;;;43.33;38.83;;;;;;;;;;6248561;22;20598;-77
2021/09/29 12:47:04;;;;;;;13.98;11.43;;;;;;;;;;6275384;22;20378;-76
2021/09/29 12:49:32;;;;;;;10.65;8.23;;;;;;;;;;6275148;22;20051;-76
2021/09/29 12:54:47;;;;;;;5.95;4.78;;;;;;;;;;6275673;22;20072;-76
2021/09/29 12:57:13;;;;;;;10.48;8.35;;;;;;;;;;6274521;22;20004;-78
2021/09/29 12:59:39;;;;;;;9.82;8.88;;;;;;;;;;6273908;22;20023;-77
2021/09/29 13:02:06;;;;;;;8.25;7.45;;;;;;;;;;6274665;22;20007;-75
2021/09/29 13:04:32;;;;;;;6.95;6.13;;;;;;;;;;6273881;22;20511;-77
2021/09/29 13:06:58;;;;;;;5.15;4.65;;;;;;;;;;6275002;22;20122;-76
2021/09/29 13:09:24;;;;;;;6.32;4.70;;;;;;;;;;6247864;22;20065;-77
2021/09/29 13:11:50;;;;;;;6.38;5.45;;;;;;;;;;6275081;22;20074;-75
2021/09/29 13:14:17;;;;;;;5.55;4.97;;;;;;;;;;6275305;22;20018;-74
2021/09/29 13:16:44;;;;;;;5.63;5.05;;;;;;;;;;6274746;22;20069;-77
2021/09/29 13:19:16;;;;;;;5.40;5.00;;;;;;;;;;6275299;22;19999;-74
2021/09/29 13:21:51;;;;;;;5.80;5.20;;;;;;;;;;6275185;22;20088;-76
2021/09/29 13:37:24;;;;;;;4.97;4.57;;;;;;;;;;6275390;22;20042;-77
2021/09/29 13:39:51;;;;;;;28.92;26.15;;;;;;;;;;6274626;22;20004;-77
2021/09/29 13:42:17;;;;;;;12.32;11.13;;;;;;;;;;6275703;22;20015;-76
2021/09/29 13:44:44;;;;;;;12.35;10.50;;;;;;;;;;6274535;22;20003;-76
2021/09/29 13:47:10;;;;;;;7.82;7.03;;;;;;;;;;6248726;22;20327;-77
2021/09/29 13:49:36;;;;;;;14.75;13.25;;;;;;;;;;6275122;22;20318;-75
2021/09/29 13:52:04;;;;;;;6.72;6.22;;;;;;;;;;6275289;22;20018;-76
2021/09/29 13:54:30;;;;;;;6.45;5.78;;;;;;;;;;6247790;22;20000;-77
2021/09/29 13:56:59;;;;;;;6.72;6.10;;;;;;;;;;6275138;22;20015;-73
2021/09/29 14:29:47;;;;;;;6.55;5.90;;;;;;;;;;6277329;22;20138;-75
2021/09/29 14:32:20;;;;;;;9.23;5.65;;;;;;;;;;6277281;22;20003;-77
2021/09/29 14:34:46;;;;;;;8.80;7.95;;;;;;;;;;6276760;22;20007;-77
2021/09/29 14:37:12;;;;;;;23.60;18.80;;;;;;;;;;6277446;22;20011;-75
2021/09/29 14:39:39;;;;;;;9.38;7.68;;;;;;;;;;6277446;22;20442;-74
2021/09/29 14:42:07;;;;;;;8.18;7.28;;;;;;;;;;6276824;22;20057;-78
2021/09/29 14:44:33;;;;;;;7.20;6.15;;;;;;;;;;6250001;22;20004;-75
2021/09/29 14:46:59;;;;;;;10.95;5.75;;;;;;;;;;6277052;22;20056;-78
2021/09/29 14:49:26;;;;;;;6.95;6.05;;;;;;;;;;6250300;22;20007;-77
2021/09/29 14:51:52;;;;;;;6.22;5.60;;;;;;;;;;6276865;22;20312;-75
2021/09/29 14:54:18;;;;;;;5.78;5.28;;;;;;;;;;6277114;22;20004;-75
2021/09/29 14:56:46;;;;;;;7.35;6.47;;;;;;;;;;6276584;22;20027;-77
2021/09/29 14:59:12;;;;;;;14.60;13.10;;;;;;;;;;6276944;22;20008;-75
2021/09/29 15:01:38;;;;;;;7.53;6.47;;;;;;;;;;6277325;22;20011;-75
2021/09/29 15:04:05;;;;;;;7.15;6.25;;;;;;;;;;6249147;22;20054;-76
2021/09/29 15:06:31;;;;;;;9.27;6.93;;;;;;;;;;6277154;22;20002;-74
2021/09/29 15:08:57;;;;;;;9.18;6.97;;;;;;;;;;6276765;22;20008;-73
2021/09/29 15:11:23;;;;;;;7.50;6.82;;;;;;;;;;6276614;22;20029;-77
2021/09/29 15:13:52;;;;;;;8.35;7.55;;;;;;;;;;6276813;22;20010;-76
2021/09/29 15:19:34;;;;;;;9.38;6.75;;;;;;;;;;6286853;22;20012;-75
2021/09/29 15:46:18;;;;;;;14.40;12.32;;;;;;;;;;6269204;22;20457;-74
2021/09/29 15:51:38;;;;;;;;;;;;;;;;;;6276811;22;20055;-76
2021/09/29 16:02:07;;;;;;;7.57;6.80;;;;;;;;;;6286406;22;20019;-73
2021/09/29 16:07:12;;;;;;;11.60;6.57;;;;;;;;;;6286930;22;20018;-77
2021/09/29 16:12:32;;;;;;;9.32;7.18;;;;;;;;;;6284102;22;20041;-77
2021/09/29 16:15:14;;;;;;;11.07;7.03;;;;;;;;;;6276180;22;20023;-75
2021/09/29 16:31:31;;;;;;;36.00;32.13;;;;;;;;;;6228922;22;20011;-75
2021/09/29 16:34:05;;;;;;;53.28;47.55;;;;;;;;;;6275789;22;20394;-75
2021/09/29 16:36:32;;;;;;;42.35;37.42;;;;;;;;;;6275161;22;20004;-74
2021/09/29 16:38:58;;;;;;;23.73;21.20;;;;;;;;;;6272697;22;20015;-75
2021/09/29 16:41:25;;;;;;;8.63;6.45;;;;;;;;;;6275589;22;20068;-76
2021/09/29 16:43:52;;;;;;;35.83;31.98;;;;;;;;;;6275533;22;20000;-75
2021/09/29 16:46:21;;;;;;;14.73;11.65;;;;;;;;;;6275780;22;20007;-74
2021/09/29 16:48:48;;;;;;;23.00;20.70;;;;;;;;;;6275443;22;20027;-76
2021/09/29 16:53:46;;;;;;;7.25;6.55;;;;;;;;;;6272335;22;20031;-77
2021/09/29 16:56:13;;;;;;;6.95;6.25;;;;;;;;;;6275746;22;20090;-74
2021/09/29 17:01:28;;;;;;;7.43;6.68;;;;;;;;;;6275428;22;20014;-76
2021/09/29 17:03:56;;;;;;;8.63;6.30;;;;;;;;;;6276340;22;20010;-76
2021/09/29 17:06:23;;;;;;;6.35;5.75;;;;;;;;;;6275792;22;20030;-74
2021/09/29 17:08:49;;;;;;;7.25;6.47;;;;;;;;;;6275452;22;20026;-78
2021/09/29 17:11:16;;;;;;;7.30;6.55;;;;;;;;;;6275593;22;19999;-75
2021/09/29 17:13:43;;;;;;;7.55;6.85;;;;;;;;;;6276035;22;20076;-76
2021/09/29 17:16:19;;;;;;;7.57;6.82;;;;;;;;;;6275359;22;20004;-78
2021/09/29 17:18:46;;;;;;;8.50;7.70;;;;;;;;;;6275454;22;20008;-79
2021/09/29 17:21:23;;;;;;;8.18;7.38;;;;;;;;;;6275234;22;20408;-77
2021/09/29 17:23:50;;;;;;;7.93;7.07;;;;;;;;;;6275443;22;20049;-77
2021/09/29 17:26:16;;;;;;;8.38;7.32;;;;;;;;;;6275173;22;20004;-74
2021/09/29 17:28:46;;;;;;;8.70;7.90;;;;;;;;;;6274836;22;20051;-77
2021/09/29 17:31:14;;;;;;;8.80;7.93;;;;;;;;;;6274710;22;20004;-77
2021/09/29 17:52:25;;;;;;;13.77;11.70;;;;;;;;;;6278584;22;20030;-76
2021/09/29 17:54:52;;;;;;;12.27;11.07;;;;;;;;;;6278135;22;20004;-75
2021/09/29 17:57:18;;;;;;;12.35;11.05;;;;;;;;;;6278419;22;20335;-75
2021/09/29 17:59:47;;;;;;;10.50;9.40;;;;;;;;;;6278367;22;20454;-76
2021/09/29 18:02:16;;;;;;;11.35;10.25;;;;;;;;;;6278788;22;20007;-77
2021/09/29 18:04:45;;;;;;;11.15;9.73;;;;;;;;;;6251172;22;20006;-74
2021/09/29 18:09:58;;;;;;;12.10;9.60;;;;;;;;;;6262498;22;20088;-75
2021/09/29 18:12:24;;;;;;;10.75;9.65;;;;;;;;;;6278572;22;20003;-75
2021/09/29 18:14:50;;;;;;;13.52;12.27;;;;;;;;;;6278629;22;20062;-74
2021/09/29 18:17:17;;;;;;;12.77;11.10;;;;;;;;;;6278577;22;20008;-74
2021/09/29 18:19:43;;;;;;;12.52;11.40;;;;;;;;;;6278690;22;20327;-76
2021/09/29 18:22:14;;;;;;;14.45;12.95;;;;;;;;;;6278782;22;20000;-75
2021/09/29 18:24:41;;;;;;;13.00;11.80;;;;;;;;;;6278522;22;20003;-77
2021/09/29 18:27:08;;;;;;;14.57;13.13;;;;;;;;;;6278808;22;20004;-75
2021/09/29 18:29:34;;;;;;;21.63;17.35;;;;;;;;;;6278232;22;20494;-77
2021/09/29 18:32:02;;;;;;;12.35;11.15;;;;;;;;;;6278656;22;20027;-75
2021/09/29 18:34:31;;;;;;;12.80;10.55;;;;;;;;;;6278404;22;20489;-76
2021/09/29 18:36:59;;;;;;;11.32;10.30;;;;;;;;;;6278343;22;20012;-75
2021/09/29 18:39:25;;;;;;;12.73;11.45;;;;;;;;;;6278317;22;19999;-76
2021/09/29 18:41:53;;;;;;;11.75;10.55;;;;;;;;;;6278564;22;20118;-77
2021/09/29 18:44:19;;;;;;;13.40;11.55;;;;;;;;;;6278336;22;20071;-78
2021/09/29 18:46:45;;;;;;;11.75;10.60;;;;;;;;;;6251284;22;20058;-74
2021/09/29 18:49:14;;;;;;;12.90;11.57;;;;;;;;;;6278571;22;20006;-75